Time;durP1;ratioP1;P1;durP2;ratioP2;P2;SDS_P1;SDS_P2;PMS_P1;PMS_P2;Temp;Humidity;BMP_temperature;BMP_pressure;BME280_temperature;BME280_humidity;BME280_pressure;Samples;Min_cycle;Max_cycle;Signal;HPM_P1;HPM_P2
2022/05/08 00:00:16;;;;;;;66.30;41.67;;;;;;;;;;5015392;28;20095;-74
2022/05/08 00:02:43;;;;;;;53.60;37.17;;;;;;;;;;5014692;28;20034;-74
2022/05/08 00:05:12;;;;;;;61.13;42.28;;;;;;;;;;5013596;28;20099;-74
2022/05/08 00:07:38;;;;;;;43.25;30.35;;;;;;;;;;5016599;28;20026;-74
2022/05/08 00:10:04;;;;;;;88.05;63.22;;;;;;;;;;5011567;28;20048;-74
2022/05/08 00:12:30;;;;;;;74.05;55.58;;;;;;;;;;5015911;28;20065;-74
2022/05/08 00:14:56;;;;;;;61.58;46.17;;;;;;;;;;5011128;28;20034;-74
2022/05/08 00:17:22;;;;;;;53.78;38.75;;;;;;;;;;5010200;28;20029;-74
2022/05/08 00:19:48;;;;;;;50.58;36.05;;;;;;;;;;5017266;28;20402;-74
2022/05/08 00:22:15;;;;;;;47.03;37.45;;;;;;;;;;5019137;28;20062;-74
2022/05/08 00:24:41;;;;;;;41.00;30.88;;;;;;;;;;5012860;28;20037;-74
2022/05/08 00:27:07;;;;;;;40.67;30.13;;;;;;;;;;5017876;28;20029;-74
2022/05/08 00:29:33;;;;;;;40.40;29.88;;;;;;;;;;5012583;28;20479;-74
2022/05/08 00:31:59;;;;;;;30.42;22.33;;;;;;;;;;5014352;28;20112;-74
2022/05/08 00:34:26;;;;;;;36.55;27.67;;;;;;;;;;5013362;28;20065;-74
2022/05/08 00:36:52;;;;;;;24.00;16.73;;;;;;;;;;5017195;28;20026;-74
2022/05/08 00:39:19;;;;;;;17.95;12.60;;;;;;;;;;5015666;28;20030;-74
2022/05/08 00:41:48;;;;;;;12.27;9.32;;;;;;;;;;5017577;28;20056;-74
2022/05/08 00:44:14;;;;;;;9.73;6.60;;;;;;;;;;5015513;28;20069;-74
2022/05/08 00:46:41;;;;;;;9.45;6.18;;;;;;;;;;5014275;28;20080;-74
2022/05/08 00:49:07;;;;;;;11.10;8.32;;;;;;;;;;5015296;28;20490;-74
2022/05/08 00:51:36;;;;;;;10.80;8.70;;;;;;;;;;5017016;28;20033;-74
2022/05/08 00:54:03;;;;;;;10.40;8.07;;;;;;;;;;5008263;28;20095;-74
2022/05/08 00:56:29;;;;;;;11.65;7.55;;;;;;;;;;5015663;28;20072;-74
2022/05/08 00:58:56;;;;;;;16.02;7.65;;;;;;;;;;5012899;28;20042;-74
2022/05/08 01:01:22;;;;;;;11.15;7.53;;;;;;;;;;5015084;28;20037;-74
2022/05/08 01:03:49;;;;;;;11.10;7.72;;;;;;;;;;5017235;28;20039;-74
2022/05/08 01:06:15;;;;;;;10.55;7.72;;;;;;;;;;5017618;28;20117;-74
2022/05/08 01:08:43;;;;;;;11.38;8.02;;;;;;;;;;5017593;28;20033;-74
2022/05/08 01:11:09;;;;;;;9.70;7.63;;;;;;;;;;5018128;28;20088;-74
2022/05/08 01:13:35;;;;;;;10.05;7.25;;;;;;;;;;5018264;28;20391;-74
2022/05/08 01:16:02;;;;;;;10.77;7.68;;;;;;;;;;5017336;28;20046;-74
2022/05/08 01:18:28;;;;;;;9.38;6.63;;;;;;;;;;5013493;28;20030;-74
2022/05/08 01:20:55;;;;;;;11.98;7.05;;;;;;;;;;5019999;28;20038;-74
2022/05/08 01:23:21;;;;;;;10.90;6.35;;;;;;;;;;5018277;28;20029;-74
2022/05/08 01:25:51;;;;;;;10.82;7.13;;;;;;;;;;5017448;28;20033;-74
2022/05/08 01:28:17;;;;;;;11.23;5.57;;;;;;;;;;5019834;28;20457;-74
2022/05/08 01:30:44;;;;;;;9.23;5.47;;;;;;;;;;5011468;28;20128;-74
2022/05/08 01:33:11;;;;;;;7.80;5.20;;;;;;;;;;5017352;28;20037;-74
2022/05/08 01:35:37;;;;;;;8.77;5.40;;;;;;;;;;5017328;28;20032;-74
2022/05/08 01:38:03;;;;;;;10.25;6.32;;;;;;;;;;5014410;28;20030;-74
2022/05/08 01:40:30;;;;;;;10.32;6.65;;;;;;;;;;5020825;28;20751;-74
2022/05/08 01:42:56;;;;;;;11.07;6.50;;;;;;;;;;5017451;28;20044;-74
2022/05/08 01:45:22;;;;;;;13.05;7.07;;;;;;;;;;5012972;28;20041;-74
2022/05/08 01:50:34;;;;;;;8.32;6.25;;;;;;;;;;5019872;28;20044;-74
2022/05/08 01:53:00;;;;;;;10.90;5.50;;;;;;;;;;5018697;28;20376;-74
2022/05/08 01:55:26;;;;;;;8.40;6.47;;;;;;;;;;5017287;28;20037;-74
2022/05/08 01:57:56;;;;;;;15.18;7.45;;;;;;;;;;5017754;28;20030;-74
2022/05/08 02:00:22;;;;;;;9.75;7.90;;;;;;;;;;5017009;28;20136;-73
2022/05/08 02:02:49;;;;;;;16.50;7.07;;;;;;;;;;5020774;28;20104;-74
2022/05/08 02:05:18;;;;;;;9.60;7.38;;;;;;;;;;5016769;28;20034;-74
2022/05/08 02:07:45;;;;;;;8.57;6.47;;;;;;;;;;5016549;28;20057;-74
2022/05/08 02:10:12;;;;;;;9.27;6.03;;;;;;;;;;5005708;28;20120;-74
2022/05/08 02:12:38;;;;;;;7.68;5.30;;;;;;;;;;5019488;28;20025;-74
2022/05/08 02:15:06;;;;;;;8.20;5.20;;;;;;;;;;5015518;28;20036;-74
2022/05/08 02:17:32;;;;;;;8.02;5.20;;;;;;;;;;5017400;28;20053;-74
2022/05/08 02:19:59;;;;;;;8.57;5.68;;;;;;;;;;5018795;28;20772;-74
2022/05/08 02:22:25;;;;;;;10.15;6.45;;;;;;;;;;5012474;28;20477;-74
2022/05/08 02:24:51;;;;;;;8.13;5.68;;;;;;;;;;5018327;28;20030;-74
2022/05/08 02:27:18;;;;;;;7.57;4.90;;;;;;;;;;5017229;28;20045;-74
2022/05/08 02:29:48;;;;;;;7.65;5.30;;;;;;;;;;5019353;28;20065;-74
2022/05/08 02:32:14;;;;;;;10.50;6.10;;;;;;;;;;5013649;28;20034;-74
2022/05/08 02:34:40;;;;;;;11.00;6.65;;;;;;;;;;5016284;28;20032;-74
2022/05/08 02:37:06;;;;;;;9.10;5.18;;;;;;;;;;5019204;28;20727;-74
2022/05/08 02:39:32;;;;;;;9.85;6.60;;;;;;;;;;5013404;28;20053;-74
2022/05/08 02:41:58;;;;;;;7.35;4.93;;;;;;;;;;5013870;28;20058;-74
2022/05/08 02:44:24;;;;;;;11.23;4.95;;;;;;;;;;5013251;28;20103;-74
2022/05/08 02:46:50;;;;;;;10.60;5.80;;;;;;;;;;5018331;28;20046;-74
2022/05/08 02:49:16;;;;;;;10.98;5.22;;;;;;;;;;5021237;28;20045;-74
2022/05/08 02:51:42;;;;;;;8.30;5.28;;;;;;;;;;5016620;28;20659;-74
2022/05/08 02:54:09;;;;;;;9.73;5.72;;;;;;;;;;5011500;28;20043;-74
2022/05/08 02:59:19;;;;;;;7.20;5.05;;;;;;;;;;5013189;28;20053;-74
2022/05/08 03:01:45;;;;;;;9.65;5.28;;;;;;;;;;5016169;28;20060;-74
2022/05/08 03:04:11;;;;;;;6.55;4.90;;;;;;;;;;5020872;28;20041;-74
2022/05/08 03:06:38;;;;;;;12.68;6.03;;;;;;;;;;5018558;28;20132;-74
2022/05/08 03:09:04;;;;;;;8.85;5.03;;;;;;;;;;5013556;28;20041;-74
2022/05/08 03:11:32;;;;;;;6.60;4.43;;;;;;;;;;5017308;28;20042;-74
2022/05/08 03:13:58;;;;;;;8.15;5.03;;;;;;;;;;5016392;28;20041;-74
2022/05/08 03:16:26;;;;;;;9.68;5.70;;;;;;;;;;5016471;28;20804;-74
2022/05/08 03:18:52;;;;;;;8.00;5.70;;;;;;;;;;5013509;28;20049;-74
2022/05/08 03:21:18;;;;;;;9.43;5.65;;;;;;;;;;5015638;28;20034;-74
2022/05/08 03:23:45;;;;;;;9.45;5.65;;;;;;;;;;5017227;28;20045;-74
2022/05/08 03:26:13;;;;;;;8.48;5.30;;;;;;;;;;5015416;28;20069;-74
2022/05/08 03:28:39;;;;;;;10.38;6.93;;;;;;;;;;5016984;28;20033;-74
2022/05/08 03:31:05;;;;;;;11.32;5.53;;;;;;;;;;5017744;28;20034;-74
2022/05/08 03:33:35;;;;;;;9.70;6.20;;;;;;;;;;5015311;28;20273;-74
2022/05/08 03:36:01;;;;;;;8.27;4.82;;;;;;;;;;5017535;28;20030;-74
2022/05/08 03:38:27;;;;;;;9.40;6.20;;;;;;;;;;5018946;28;20065;-74
2022/05/08 03:40:54;;;;;;;10.07;5.28;;;;;;;;;;5011467;28;20033;-74
2022/05/08 03:43:21;;;;;;;11.60;6.25;;;;;;;;;;5016681;28;20034;-74
2022/05/08 03:45:50;;;;;;;13.80;7.00;;;;;;;;;;5014580;28;20049;-74
2022/05/08 03:48:20;;;;;;;7.72;5.68;;;;;;;;;;5013367;28;20063;-74
2022/05/08 03:50:46;;;;;;;8.90;4.80;;;;;;;;;;5015537;28;20042;-74
2022/05/08 03:53:12;;;;;;;12.70;5.80;;;;;;;;;;5016391;28;20030;-74
2022/05/08 03:55:38;;;;;;;7.30;5.15;;;;;;;;;;5015581;28;20038;-74
2022/05/08 03:58:05;;;;;;;11.27;5.65;;;;;;;;;;5014182;28;20536;-74
2022/05/08 04:00:31;;;;;;;9.27;5.90;;;;;;;;;;5019718;28;20092;-74
2022/05/08 04:02:59;;;;;;;7.32;5.75;;;;;;;;;;5015412;28;20038;-74
2022/05/08 04:05:25;;;;;;;8.07;5.40;;;;;;;;;;5013304;28;20026;-74
2022/05/08 04:07:51;;;;;;;9.05;5.75;;;;;;;;;;5014136;28;20030;-74
2022/05/08 04:10:17;;;;;;;7.97;5.45;;;;;;;;;;5015466;28;20735;-74
2022/05/08 04:12:44;;;;;;;10.00;5.90;;;;;;;;;;5016770;28;20042;-74
2022/05/08 04:16:15;;;;;;;7.22;4.97;;;;;;;;;;5011667;28;20033;-74
2022/05/08 04:17:57;;;;;;;10.82;6.68;;;;;;;;;;5014982;28;20041;-74
2022/05/08 04:20:23;;;;;;;9.20;5.95;;;;;;;;;;5017444;28;20033;-74
2022/05/08 04:25:33;;;;;;;9.93;5.85;;;;;;;;;;5008749;28;20041;-74
2022/05/08 04:27:59;;;;;;;12.43;7.22;;;;;;;;;;4995913;28;20505;-74
2022/05/08 04:30:25;;;;;;;14.75;8.90;;;;;;;;;;5013748;28;20030;-74
2022/05/08 04:32:51;;;;;;;10.50;9.10;;;;;;;;;;5017782;28;20040;-74
2022/05/08 04:35:17;;;;;;;10.75;7.88;;;;;;;;;;5011868;28;20456;-74
2022/05/08 04:37:44;;;;;;;14.02;8.55;;;;;;;;;;5015049;28;20046;-74
2022/05/08 04:40:11;;;;;;;13.55;9.48;;;;;;;;;;5022898;28;20026;-74
2022/05/08 04:42:37;;;;;;;41.42;35.53;;;;;;;;;;5020798;28;20048;-74
2022/05/08 04:45:03;;;;;;;19.83;15.68;;;;;;;;;;5018854;28;20483;-74
2022/05/08 04:47:29;;;;;;;16.80;12.50;;;;;;;;;;5015044;28;20045;-74
2022/05/08 04:49:55;;;;;;;20.30;12.77;;;;;;;;;;5018346;28;20068;-74
2022/05/08 04:52:21;;;;;;;10.60;9.00;;;;;;;;;;5019309;28;20384;-74
2022/05/08 04:54:47;;;;;;;10.48;7.40;;;;;;;;;;5019501;28;20048;-74
2022/05/08 04:57:13;;;;;;;13.38;6.88;;;;;;;;;;5009775;28;20139;-74
2022/05/08 04:59:39;;;;;;;9.18;6.10;;;;;;;;;;5019917;28;20030;-74
2022/05/08 05:02:08;;;;;;;7.82;5.55;;;;;;;;;;5019874;28;20034;-73
2022/05/08 05:04:34;;;;;;;9.52;6.68;;;;;;;;;;5018445;28;20426;-74
2022/05/08 05:07:00;;;;;;;8.68;6.25;;;;;;;;;;5015431;28;20057;-74
2022/05/08 05:09:26;;;;;;;13.02;6.65;;;;;;;;;;5017407;28;20378;-74
2022/05/08 05:11:52;;;;;;;10.25;7.20;;;;;;;;;;5018424;28;20033;-74
2022/05/08 05:14:18;;;;;;;8.98;6.53;;;;;;;;;;5018046;28;20080;-74
2022/05/08 05:16:44;;;;;;;11.55;6.53;;;;;;;;;;5018130;28;20509;-74
2022/05/08 05:19:11;;;;;;;9.80;6.18;;;;;;;;;;5017666;28;20045;-74
2022/05/08 05:21:36;;;;;;;8.85;6.45;;;;;;;;;;5015934;28;20064;-74
2022/05/08 05:24:03;;;;;;;12.27;7.18;;;;;;;;;;5011913;28;20538;-74
2022/05/08 05:26:29;;;;;;;9.45;7.15;;;;;;;;;;5020531;28;20040;-74
2022/05/08 05:28:54;;;;;;;12.43;7.50;;;;;;;;;;5018216;28;20038;-74
2022/05/08 05:31:21;;;;;;;10.27;7.32;;;;;;;;;;5020662;28;20064;-74
2022/05/08 05:33:47;;;;;;;11.02;7.18;;;;;;;;;;5016433;28;20454;-74
2022/05/08 05:36:13;;;;;;;8.77;6.82;;;;;;;;;;5018740;28;20040;-74
2022/05/08 05:38:39;;;;;;;8.35;6.35;;;;;;;;;;5015823;28;20168;-74
2022/05/08 05:41:05;;;;;;;8.43;6.30;;;;;;;;;;5019435;28;20060;-74
2022/05/08 05:43:34;;;;;;;10.10;5.90;;;;;;;;;;5017045;28;20033;-74
2022/05/08 05:48:45;;;;;;;11.02;6.05;;;;;;;;;;5013766;28;20052;-74
2022/05/08 05:51:11;;;;;;;8.60;5.63;;;;;;;;;;5016654;28;20069;-74
2022/05/08 05:53:37;;;;;;;6.20;4.63;;;;;;;;;;5016713;28;20026;-74
2022/05/08 05:56:04;;;;;;;6.38;5.00;;;;;;;;;;5017778;28;20165;-74
2022/05/08 05:58:30;;;;;;;9.50;5.75;;;;;;;;;;5019163;28;20479;-74
2022/05/08 06:00:56;;;;;;;8.20;5.57;;;;;;;;;;5016749;28;20041;-73
2022/05/08 06:03:22;;;;;;;8.60;5.88;;;;;;;;;;5014073;28;20038;-74
2022/05/08 06:05:48;;;;;;;7.43;6.20;;;;;;;;;;5019724;28;20117;-74
2022/05/08 06:08:14;;;;;;;8.65;6.47;;;;;;;;;;5015655;28;20046;-74
2022/05/08 06:10:41;;;;;;;8.57;6.30;;;;;;;;;;5019214;28;20079;-74
2022/05/08 06:13:07;;;;;;;7.63;5.82;;;;;;;;;;5014403;28;20395;-74
2022/05/08 06:15:33;;;;;;;8.52;5.72;;;;;;;;;;5017235;28;20040;-73
2022/05/08 06:17:59;;;;;;;8.05;5.78;;;;;;;;;;5006796;28;20041;-74
2022/05/08 06:20:26;;;;;;;8.65;5.60;;;;;;;;;;5008243;28;20026;-74
2022/05/08 06:22:52;;;;;;;8.95;5.65;;;;;;;;;;5013031;28;20045;-74
2022/05/08 06:25:18;;;;;;;8.27;5.47;;;;;;;;;;5010377;28;20112;-73
2022/05/08 06:27:44;;;;;;;8.73;6.05;;;;;;;;;;5007796;28;20112;-75
2022/05/08 06:30:10;;;;;;;8.10;5.57;;;;;;;;;;5016449;28;20037;-74
2022/05/08 06:32:36;;;;;;;8.10;6.75;;;;;;;;;;5012409;28;20042;-74
2022/05/08 06:35:02;;;;;;;9.73;6.35;;;;;;;;;;5012553;28;20044;-74
2022/05/08 06:37:28;;;;;;;8.52;5.25;;;;;;;;;;5012495;28;20030;-74
2022/05/08 06:39:54;;;;;;;10.05;5.55;;;;;;;;;;5010522;28;20044;-74
2022/05/08 06:42:20;;;;;;;7.15;5.82;;;;;;;;;;5011426;28;20079;-74
2022/05/08 06:44:46;;;;;;;15.25;7.78;;;;;;;;;;5011495;28;20076;-74
2022/05/08 06:47:12;;;;;;;8.10;4.95;;;;;;;;;;5012759;28;20049;-74
2022/05/08 06:49:38;;;;;;;8.68;4.88;;;;;;;;;;5008143;28;20046;-73
2022/05/08 06:52:04;;;;;;;7.97;5.40;;;;;;;;;;5012040;28;20232;-74
2022/05/08 06:54:30;;;;;;;6.97;5.38;;;;;;;;;;5014430;28;20099;-74
2022/05/08 06:56:57;;;;;;;9.18;5.30;;;;;;;;;;5009938;28;20041;-74
2022/05/08 07:02:10;;;;;;;6.32;4.40;;;;;;;;;;5004821;28;20096;-74
2022/05/08 07:04:36;;;;;;;8.05;5.65;;;;;;;;;;5005576;28;20104;-74
2022/05/08 07:07:02;;;;;;;7.88;4.15;;;;;;;;;;5009424;28;20688;-74
2022/05/08 07:09:28;;;;;;;6.97;4.55;;;;;;;;;;5006830;28;20034;-75
2022/05/08 07:11:54;;;;;;;10.82;4.60;;;;;;;;;;5008382;28;20041;-75
2022/05/08 07:14:20;;;;;;;5.97;4.03;;;;;;;;;;5001971;28;20038;-75
2022/05/08 07:16:46;;;;;;;5.95;4.32;;;;;;;;;;5007205;28;20033;-74
2022/05/08 07:19:12;;;;;;;7.25;4.50;;;;;;;;;;5007641;28;20692;-74
2022/05/08 07:21:38;;;;;;;6.90;4.40;;;;;;;;;;5004693;28;20030;-74
2022/05/08 07:24:05;;;;;;;9.02;5.03;;;;;;;;;;5004048;28;20040;-74
2022/05/08 07:26:31;;;;;;;7.22;4.20;;;;;;;;;;5005867;28;20162;-74
2022/05/08 07:28:57;;;;;;;8.60;4.55;;;;;;;;;;5005358;28;20179;-74
2022/05/08 07:31:24;;;;;;;9.95;4.80;;;;;;;;;;5002379;28;20757;-74
2022/05/08 07:36:49;;;;;;;6.65;5.55;;;;;;;;;;4985608;28;20029;-74
2022/05/08 07:39:15;;;;;;;9.32;5.80;;;;;;;;;;5005825;28;20037;-74
2022/05/08 07:41:41;;;;;;;7.25;5.60;;;;;;;;;;5003488;28;20467;-74
2022/05/08 07:44:07;;;;;;;8.50;5.53;;;;;;;;;;5010293;28;20037;-74
2022/05/08 07:46:33;;;;;;;7.63;5.15;;;;;;;;;;5008158;28;20068;-75
2022/05/08 07:48:59;;;;;;;6.88;5.35;;;;;;;;;;5010365;28;20042;-75
2022/05/08 07:51:26;;;;;;;7.63;5.40;;;;;;;;;;5006664;28;20113;-74
2022/05/08 07:53:52;;;;;;;9.80;5.55;;;;;;;;;;5005839;28;20484;-74
2022/05/08 07:56:18;;;;;;;9.00;6.00;;;;;;;;;;5005300;28;20053;-75
2022/05/08 07:58:44;;;;;;;7.32;5.07;;;;;;;;;;5007654;28;20108;-74
2022/05/08 08:01:10;;;;;;;8.73;5.93;;;;;;;;;;5007358;28;20420;-74
2022/05/08 08:03:37;;;;;;;10.55;6.10;;;;;;;;;;5011765;28;20058;-74
2022/05/08 08:06:04;;;;;;;8.38;5.95;;;;;;;;;;5007259;28;20026;-74
2022/05/08 08:08:31;;;;;;;7.38;5.82;;;;;;;;;;5005346;28;20037;-74
2022/05/08 08:10:59;;;;;;;8.63;6.13;;;;;;;;;;5006132;28;20053;-74
2022/05/08 08:13:30;;;;;;;8.00;6.32;;;;;;;;;;5006629;28;20048;-75
2022/05/08 08:15:57;;;;;;;10.20;7.25;;;;;;;;;;5010211;28;20040;-74
2022/05/08 08:18:23;;;;;;;9.45;6.20;;;;;;;;;;5012419;28;20026;-74
2022/05/08 08:20:49;;;;;;;7.05;5.35;;;;;;;;;;5006325;28;20061;-74
2022/05/08 08:23:15;;;;;;;9.75;6.25;;;;;;;;;;5010914;28;20646;-74
2022/05/08 08:25:41;;;;;;;9.20;5.80;;;;;;;;;;5009975;28;20026;-74
2022/05/08 08:28:07;;;;;;;8.63;6.30;;;;;;;;;;5007759;28;20865;-75
2022/05/08 08:30:33;;;;;;;8.80;6.05;;;;;;;;;;5006219;28;20104;-74
2022/05/08 08:33:00;;;;;;;7.18;5.43;;;;;;;;;;5005011;28;20087;-74
2022/05/08 08:35:26;;;;;;;12.48;6.13;;;;;;;;;;5010728;28;20036;-75
2022/05/08 08:37:52;;;;;;;11.15;5.32;;;;;;;;;;5010849;28;20034;-75
2022/05/08 08:40:20;;;;;;;7.70;4.65;;;;;;;;;;5011220;28;20052;-75
2022/05/08 08:42:46;;;;;;;6.15;4.45;;;;;;;;;;5005028;28;20034;-74
2022/05/08 08:48:02;;;;;;;8.20;4.45;;;;;;;;;;5008098;28;20060;-74
2022/05/08 08:50:28;;;;;;;6.45;5.15;;;;;;;;;;5007642;28;20538;-74
2022/05/08 08:52:55;;;;;;;8.70;5.53;;;;;;;;;;5006353;28;20045;-74
2022/05/08 08:55:22;;;;;;;12.50;7.75;;;;;;;;;;5016386;28;20064;-75
2022/05/08 08:57:48;;;;;;;8.13;4.90;;;;;;;;;;5006531;28;20077;-74
2022/05/08 09:00:14;;;;;;;12.07;6.20;;;;;;;;;;5009023;28;20029;-74
2022/05/08 09:02:41;;;;;;;7.93;5.32;;;;;;;;;;5009415;28;20049;-74
2022/05/08 09:05:10;;;;;;;8.20;6.25;;;;;;;;;;5007288;28;20069;-75
2022/05/08 09:07:42;;;;;;;7.60;5.57;;;;;;;;;;5005640;28;20034;-75
2022/05/08 09:10:08;;;;;;;10.13;5.45;;;;;;;;;;5011338;28;20100;-74
2022/05/08 09:12:34;;;;;;;6.60;4.75;;;;;;;;;;5006998;28;20061;-74
2022/05/08 09:15:00;;;;;;;7.28;5.72;;;;;;;;;;5012324;28;20101;-74
2022/05/08 09:17:43;;;;;;;6.75;4.93;;;;;;;;;;5009957;28;20069;-74
2022/05/08 09:20:29;;;;;;;6.85;4.78;;;;;;;;;;5002586;28;20154;-74
2022/05/08 09:23:04;;;;;;;8.05;4.28;;;;;;;;;;5008337;28;20046;-74
2022/05/08 09:25:49;;;;;;;6.60;4.47;;;;;;;;;;5008882;28;20041;-75
2022/05/08 09:28:36;;;;;;;8.43;4.68;;;;;;;;;;5009648;28;20044;-74
2022/05/08 09:31:02;;;;;;;6.15;3.40;;;;;;;;;;5004577;28;20730;-74
2022/05/08 09:33:29;;;;;;;5.88;3.83;;;;;;;;;;4995802;28;20042;-74
2022/05/08 09:35:56;;;;;;;5.93;3.72;;;;;;;;;;5013190;28;20411;-74
2022/05/08 09:38:22;;;;;;;8.13;4.25;;;;;;;;;;5013467;28;20034;-74
2022/05/08 09:41:06;;;;;;;11.73;5.47;;;;;;;;;;5005356;28;20034;-74
2022/05/08 09:43:34;;;;;;;5.78;3.60;;;;;;;;;;5008510;28;20101;-74
2022/05/08 09:46:00;;;;;;;11.02;4.75;;;;;;;;;;5014997;28;20042;-74
2022/05/08 09:48:27;;;;;;;8.63;3.80;;;;;;;;;;5012636;28;20030;-74
2022/05/08 09:50:56;;;;;;;6.45;3.90;;;;;;;;;;5014188;28;20041;-74
2022/05/08 09:53:22;;;;;;;4.57;3.45;;;;;;;;;;5013565;28;20037;-75
2022/05/08 09:55:48;;;;;;;5.80;4.20;;;;;;;;;;5010512;28;20379;-74
2022/05/08 09:58:14;;;;;;;5.47;4.10;;;;;;;;;;5011098;28;20045;-74
2022/05/08 10:00:41;;;;;;;7.25;4.10;;;;;;;;;;5012500;28;20029;-74
2022/05/08 10:03:07;;;;;;;5.75;3.63;;;;;;;;;;5007914;28;20065;-74
2022/05/08 10:05:33;;;;;;;6.30;3.45;;;;;;;;;;5013014;28;20677;-74
2022/05/08 10:08:00;;;;;;;5.60;3.80;;;;;;;;;;5010363;28;20044;-74
2022/05/08 10:15:56;;;;;;;8.43;4.57;;;;;;;;;;5008892;28;20053;-74
2022/05/08 10:18:22;;;;;;;4.85;3.40;;;;;;;;;;5009630;28;20030;-74
2022/05/08 10:21:07;;;;;;;7.75;3.30;;;;;;;;;;5013072;28;20096;-74
2022/05/08 10:23:37;;;;;;;5.13;3.15;;;;;;;;;;5007999;28;20032;-74
2022/05/08 10:26:13;;;;;;;4.85;3.47;;;;;;;;;;5008949;28;20472;-74
2022/05/08 10:28:57;;;;;;;4.65;3.30;;;;;;;;;;5007272;28;20033;-74
2022/05/08 10:31:44;;;;;;;5.93;3.28;;;;;;;;;;5014448;28;20115;-74
2022/05/08 10:34:10;;;;;;;6.13;3.65;;;;;;;;;;5014112;28;20068;-74
2022/05/08 10:36:36;;;;;;;6.93;4.22;;;;;;;;;;5009163;28;20034;-74
2022/05/08 10:39:21;;;;;;;7.35;3.65;;;;;;;;;;5008060;28;20037;-74
2022/05/08 10:41:49;;;;;;;5.75;3.85;;;;;;;;;;5011399;28;20526;-74
2022/05/08 10:44:33;;;;;;;9.38;4.03;;;;;;;;;;5012366;28;20029;-74
2022/05/08 10:47:18;;;;;;;6.60;3.90;;;;;;;;;;5006098;28;20472;-74
2022/05/08 10:49:45;;;;;;;11.13;3.75;;;;;;;;;;5009612;28;20065;-74
2022/05/08 10:52:11;;;;;;;5.40;3.20;;;;;;;;;;5011292;28;20037;-74
2022/05/08 10:54:37;;;;;;;5.68;3.10;;;;;;;;;;5007895;28;20129;-74
2022/05/08 10:57:03;;;;;;;4.05;3.08;;;;;;;;;;5011007;28;20105;-74
2022/05/08 10:59:45;;;;;;;4.97;3.53;;;;;;;;;;5015248;28;20033;-75
2022/05/08 11:02:11;;;;;;;4.47;3.40;;;;;;;;;;5007038;28;20042;-74
2022/05/08 11:04:53;;;;;;;7.90;3.25;;;;;;;;;;5008328;28;20108;-74
2022/05/08 11:07:22;;;;;;;3.80;3.08;;;;;;;;;;5013004;28;20124;-74
2022/05/08 11:09:48;;;;;;;5.15;3.17;;;;;;;;;;5010945;28;20092;-74
2022/05/08 11:12:14;;;;;;;5.47;3.03;;;;;;;;;;5009249;28;20041;-75
2022/05/08 11:14:40;;;;;;;4.65;2.80;;;;;;;;;;5004922;28;20133;-75
2022/05/08 11:17:16;;;;;;;9.38;3.63;;;;;;;;;;5005796;28;20045;-75
2022/05/08 11:19:57;;;;;;;5.07;3.15;;;;;;;;;;5002572;28;20030;-75
2022/05/08 11:22:23;;;;;;;6.05;3.65;;;;;;;;;;5005071;28;20057;-75
2022/05/08 11:24:49;;;;;;;4.90;3.47;;;;;;;;;;5001621;28;20048;-75
2022/05/08 11:27:16;;;;;;;6.03;3.45;;;;;;;;;;5006648;28;20080;-74
2022/05/08 11:29:48;;;;;;;6.30;3.83;;;;;;;;;;5006464;28;20026;-74
2022/05/08 11:38:06;;;;;;;4.18;2.88;;;;;;;;;;5007564;28;20080;-74
2022/05/08 11:40:32;;;;;;;6.40;2.67;;;;;;;;;;5011584;28;20116;-74
2022/05/08 11:42:58;;;;;;;5.32;3.40;;;;;;;;;;5013512;28;20056;-74
2022/05/08 11:45:25;;;;;;;6.95;3.45;;;;;;;;;;5012872;28;20867;-75
2022/05/08 11:47:54;;;;;;;6.20;3.20;;;;;;;;;;5013154;28;20520;-75
2022/05/08 11:50:20;;;;;;;5.65;3.70;;;;;;;;;;5006810;28;20752;-74
2022/05/08 11:52:46;;;;;;;6.43;3.70;;;;;;;;;;5007255;28;20479;-75
2022/05/08 11:55:13;;;;;;;4.18;2.40;;;;;;;;;;5012802;28;20080;-75
2022/05/08 11:57:43;;;;;;;6.70;2.58;;;;;;;;;;5006054;28;20045;-74
2022/05/08 12:00:11;;;;;;;6.63;3.00;;;;;;;;;;5014626;28;20044;-75
2022/05/08 12:02:38;;;;;;;4.70;2.97;;;;;;;;;;5014408;28;20036;-75
2022/05/08 12:05:04;;;;;;;5.78;2.78;;;;;;;;;;5005652;28;20036;-75
2022/05/08 12:07:40;;;;;;;4.93;2.95;;;;;;;;;;5007828;28;20135;-75
2022/05/08 12:10:07;;;;;;;4.70;2.90;;;;;;;;;;5006679;28;20042;-75
2022/05/08 12:12:35;;;;;;;4.60;2.85;;;;;;;;;;5013280;28;20107;-75
2022/05/08 12:15:21;;;;;;;3.92;2.47;;;;;;;;;;5006182;28;20040;-74
2022/05/08 12:17:47;;;;;;;4.88;2.83;;;;;;;;;;5008973;28;20030;-75
2022/05/08 12:20:14;;;;;;;4.95;2.83;;;;;;;;;;5005763;28;20045;-75
2022/05/08 12:22:40;;;;;;;7.10;2.88;;;;;;;;;;5010916;28;20030;-75
2022/05/08 12:25:07;;;;;;;4.13;2.70;;;;;;;;;;5013586;28;20385;-75
2022/05/08 12:27:33;;;;;;;5.47;2.80;;;;;;;;;;5012027;28;20695;-75
2022/05/08 12:29:59;;;;;;;4.45;2.30;;;;;;;;;;5004790;28;20037;-74
2022/05/08 12:32:26;;;;;;;6.05;2.55;;;;;;;;;;5006059;28;20048;-74
2022/05/08 12:34:53;;;;;;;5.30;2.50;;;;;;;;;;5003288;28;20034;-75
2022/05/08 12:37:20;;;;;;;4.03;2.20;;;;;;;;;;5003952;28;20056;-75
2022/05/08 12:39:46;;;;;;;4.93;2.40;;;;;;;;;;4999620;28;20030;-74
2022/05/08 12:42:13;;;;;;;5.18;2.30;;;;;;;;;;5003166;28;20036;-75
2022/05/08 12:44:40;;;;;;;3.83;1.98;;;;;;;;;;5002289;28;20034;-74
2022/05/08 12:47:07;;;;;;;3.38;2.10;;;;;;;;;;5001835;28;20541;-74
2022/05/08 12:49:34;;;;;;;3.67;2.17;;;;;;;;;;5008199;28;20054;-74
2022/05/08 12:52:00;;;;;;;3.45;1.98;;;;;;;;;;5006111;28;20037;-75
2022/05/08 12:54:26;;;;;;;4.80;2.20;;;;;;;;;;5015787;28;20133;-74
2022/05/08 12:56:52;;;;;;;6.05;2.05;;;;;;;;;;5010637;28;20113;-75
2022/05/08 13:02:03;;;;;;;3.70;1.92;;;;;;;;;;5018954;28;20055;-75
2022/05/08 13:04:29;;;;;;;4.15;2.25;;;;;;;;;;5015617;28;20104;-75
2022/05/08 13:06:55;;;;;;;3.65;2.17;;;;;;;;;;5015799;28;20041;-75
2022/05/08 13:09:21;;;;;;;4.53;1.83;;;;;;;;;;5016721;28;20434;-75
2022/05/08 13:11:48;;;;;;;3.78;1.85;;;;;;;;;;5016825;28;20545;-75
2022/05/08 13:14:14;;;;;;;3.88;1.80;;;;;;;;;;5013928;28;20120;-75
2022/05/08 13:16:40;;;;;;;5.03;1.70;;;;;;;;;;5004791;28;20079;-75
2022/05/08 13:19:06;;;;;;;4.82;1.88;;;;;;;;;;5012953;28;20112;-75
2022/05/08 13:21:32;;;;;;;3.25;2.00;;;;;;;;;;5011914;28;20152;-75
2022/05/08 13:23:59;;;;;;;4.40;1.45;;;;;;;;;;5015190;28;20407;-75
2022/05/08 13:26:25;;;;;;;5.30;1.92;;;;;;;;;;5011693;28;20501;-75
2022/05/08 13:28:51;;;;;;;3.38;1.90;;;;;;;;;;5015001;28;20120;-75
2022/05/08 13:31:17;;;;;;;4.03;1.75;;;;;;;;;;5005596;28;20052;-75
2022/05/08 13:33:44;;;;;;;4.55;1.90;;;;;;;;;;5011185;28;20022;-75
2022/05/08 13:36:10;;;;;;;3.15;1.85;;;;;;;;;;5008646;28;20152;-75
2022/05/08 13:38:36;;;;;;;6.88;1.98;;;;;;;;;;5006943;28;20030;-75
2022/05/08 13:41:03;;;;;;;4.63;1.80;;;;;;;;;;5009831;28;20975;-74
2022/05/08 13:43:29;;;;;;;3.38;1.67;;;;;;;;;;5007893;28;20033;-74
2022/05/08 13:45:55;;;;;;;3.03;1.80;;;;;;;;;;5010342;28;20053;-75
2022/05/08 13:48:22;;;;;;;3.17;1.50;;;;;;;;;;5017718;28;20038;-75
2022/05/08 13:50:48;;;;;;;3.10;1.98;;;;;;;;;;5012553;28;20140;-75
2022/05/08 13:53:14;;;;;;;2.15;1.45;;;;;;;;;;5016112;28;20069;-75
2022/05/08 13:55:43;;;;;;;1.80;1.13;;;;;;;;;;5009230;28;20137;-75
2022/05/08 13:58:10;;;;;;;3.17;1.73;;;;;;;;;;5011309;28;20060;-75
2022/05/08 14:00:37;;;;;;;3.92;1.38;;;;;;;;;;5018366;28;20044;-74
2022/05/08 14:03:03;;;;;;;2.65;1.63;;;;;;;;;;5011408;28;20733;-74
2022/05/08 14:05:29;;;;;;;2.63;1.40;;;;;;;;;;5012447;28;20058;-75
2022/05/08 14:07:56;;;;;;;4.03;1.10;;;;;;;;;;5007920;28;20084;-75
2022/05/08 14:10:22;;;;;;;2.28;1.30;;;;;;;;;;5006904;28;20049;-75
2022/05/08 14:12:49;;;;;;;2.72;1.40;;;;;;;;;;5011056;28;20038;-75
2022/05/08 14:15:15;;;;;;;3.72;1.33;;;;;;;;;;5010192;28;20034;-74
2022/05/08 14:17:41;;;;;;;2.38;1.13;;;;;;;;;;5010772;28;20081;-74
2022/05/08 14:20:07;;;;;;;4.03;1.50;;;;;;;;;;5007680;28;20042;-74
2022/05/08 14:22:34;;;;;;;4.97;1.42;;;;;;;;;;5008322;28;20029;-74
2022/05/08 14:25:01;;;;;;;5.10;1.63;;;;;;;;;;5008637;28;20042;-74
2022/05/08 14:27:28;;;;;;;3.00;1.10;;;;;;;;;;5006605;28;20372;-74
2022/05/08 14:29:56;;;;;;;3.10;1.40;;;;;;;;;;5005785;28;20068;-74
2022/05/08 14:37:52;;;;;;;4.22;1.25;;;;;;;;;;5012087;28;20820;-74
2022/05/08 14:40:19;;;;;;;1.98;1.10;;;;;;;;;;5010390;28;20063;-74
2022/05/08 14:42:45;;;;;;;3.28;1.30;;;;;;;;;;5005716;28;20549;-74
2022/05/08 14:45:11;;;;;;;4.50;1.30;;;;;;;;;;5008176;28;20046;-74
2022/05/08 14:47:38;;;;;;;8.23;1.60;;;;;;;;;;5011688;28;20085;-74
2022/05/08 14:50:04;;;;;;;3.00;1.40;;;;;;;;;;5011694;28;20034;-74
2022/05/08 14:52:31;;;;;;;2.70;1.50;;;;;;;;;;5008653;28;20044;-74
2022/05/08 14:54:57;;;;;;;6.05;1.60;;;;;;;;;;5006120;28;20065;-74
2022/05/08 14:57:23;;;;;;;5.60;1.63;;;;;;;;;;5004159;28;20507;-74
2022/05/08 14:59:49;;;;;;;3.47;1.33;;;;;;;;;;5006291;28;20076;-75
2022/05/08 15:02:15;;;;;;;3.13;1.50;;;;;;;;;;5015143;28;20060;-75
2022/05/08 15:04:41;;;;;;;4.70;1.05;;;;;;;;;;5009199;28;20709;-74
2022/05/08 15:07:07;;;;;;;5.15;1.15;;;;;;;;;;5008851;28;20034;-75
2022/05/08 15:09:33;;;;;;;2.38;1.20;;;;;;;;;;5009816;28;20031;-74
2022/05/08 15:12:01;;;;;;;3.75;1.00;;;;;;;;;;5011537;28;20061;-74
2022/05/08 15:14:27;;;;;;;3.88;1.08;;;;;;;;;;5006838;28;20034;-75
2022/05/08 15:16:53;;;;;;;2.70;1.30;;;;;;;;;;5011197;28;20033;-74